Miguel Riglos, Argentina
Current Conditions -  °F | °C
As of 12:00 PM on Wednesday 22 Oct 2014 (Local Time) from SAOC Reporting Station
Clear Clear  
Wind Chill: 30°   Ceiling: Unl
Heat Index: 30°   Visibility: 6mi
Dew Point:   Wind: 23mph
Humidity: 27%   Direction: 340°NNW
Pressure: 29.94"   Gusts: NA
Location:  36.85°S, 63.7°W
Report Text: SAOC 221500Z 34020KT CAVOK 30/09 Q1014
Loading
Personal Weather Stations






























Interactive Weather Map
Tropical Storm Tracking
New forecast layout! Learn more

10-Day Weather Forecast

Advertisements
Track Severe Weather on mobile